sensor_id;sensor_type;location;lat;lon;timestamp;P1;durP1;ratioP1;P2;durP2;ratioP2
21215;SDS011;10765;50.954;5.322;2022-12-18T00:00:43;67.27;;;34.57;;
21215;SDS011;10765;50.954;5.322;2022-12-18T00:03:11;64.50;;;33.90;;
21215;SDS011;10765;50.954;5.322;2022-12-18T00:05:45;65.50;;;35.40;;
21215;SDS011;10765;50.954;5.322;2022-12-18T00:08:12;73.83;;;39.30;;
21215;SDS011;10765;50.954;5.322;2022-12-18T00:10:39;78.27;;;43.10;;
21215;SDS011;10765;50.954;5.322;2022-12-18T00:13:06;73.13;;;41.03;;
21215;SDS011;10765;50.954;5.322;2022-12-18T00:15:35;77.43;;;40.47;;
21215;SDS011;10765;50.954;5.322;2022-12-18T00:18:02;70.27;;;38.10;;
21215;SDS011;10765;50.954;5.322;2022-12-18T00:20:29;70.97;;;38.83;;
21215;SDS011;10765;50.954;5.322;2022-12-18T00:22:56;72.23;;;38.90;;
21215;SDS011;10765;50.954;5.322;2022-12-18T00:25:23;66.40;;;36.73;;
21215;SDS011;10765;50.954;5.322;2022-12-18T00:27:50;64.70;;;35.03;;
21215;SDS011;10765;50.954;5.322;2022-12-18T00:30:17;58.70;;;33.60;;
21215;SDS011;10765;50.954;5.322;2022-12-18T00:32:45;55.93;;;33.23;;
21215;SDS011;10765;50.954;5.322;2022-12-18T00:35:12;62.90;;;33.20;;
21215;SDS011;10765;50.954;5.322;2022-12-18T00:37:39;56.23;;;32.53;;
21215;SDS011;10765;50.954;5.322;2022-12-18T00:40:06;58.27;;;33.13;;
21215;SDS011;10765;50.954;5.322;2022-12-18T00:42:36;56.87;;;33.80;;
21215;SDS011;10765;50.954;5.322;2022-12-18T00:45:20;55.93;;;30.97;;
21215;SDS011;10765;50.954;5.322;2022-12-18T00:47:48;56.47;;;31.10;;
21215;SDS011;10765;50.954;5.322;2022-12-18T00:50:16;55.03;;;30.93;;
21215;SDS011;10765;50.954;5.322;2022-12-18T00:52:43;55.03;;;30.93;;
21215;SDS011;10765;50.954;5.322;2022-12-18T00:55:10;56.83;;;32.50;;
21215;SDS011;10765;50.954;5.322;2022-12-18T00:57:38;62.73;;;32.83;;
21215;SDS011;10765;50.954;5.322;2022-12-18T01:00:05;59.40;;;32.33;;
21215;SDS011;10765;50.954;5.322;2022-12-18T01:02:34;55.87;;;31.93;;
21215;SDS011;10765;50.954;5.322;2022-12-18T01:05:02;52.70;;;30.43;;
21215;SDS011;10765;50.954;5.322;2022-12-18T01:07:30;59.60;;;31.90;;
21215;SDS011;10765;50.954;5.322;2022-12-18T01:09:57;58.63;;;32.30;;
21215;SDS011;10765;50.954;5.322;2022-12-18T01:12:24;52.97;;;29.17;;
21215;SDS011;10765;50.954;5.322;2022-12-18T01:14:51;51.07;;;30.40;;
21215;SDS011;10765;50.954;5.322;2022-12-18T01:17:18;48.17;;;28.10;;
21215;SDS011;10765;50.954;5.322;2022-12-18T01:19:45;50.83;;;28.23;;
21215;SDS011;10765;50.954;5.322;2022-12-18T01:22:13;54.30;;;30.47;;
21215;SDS011;10765;50.954;5.322;2022-12-18T01:24:40;64.80;;;35.57;;
21215;SDS011;10765;50.954;5.322;2022-12-18T01:27:08;106.90;;;48.73;;
21215;SDS011;10765;50.954;5.322;2022-12-18T01:29:35;103.13;;;47.27;;
21215;SDS011;10765;50.954;5.322;2022-12-18T01:32:02;159.13;;;66.50;;
21215;SDS011;10765;50.954;5.322;2022-12-18T01:34:29;128.00;;;61.73;;
21215;SDS011;10765;50.954;5.322;2022-12-18T01:36:56;84.70;;;44.43;;
21215;SDS011;10765;50.954;5.322;2022-12-18T01:39:24;57.73;;;31.10;;
21215;SDS011;10765;50.954;5.322;2022-12-18T01:41:51;55.53;;;31.37;;
21215;SDS011;10765;50.954;5.322;2022-12-18T01:44:50;91.50;;;47.40;;
21215;SDS011;10765;50.954;5.322;2022-12-18T01:47:22;117.73;;;63.00;;
21215;SDS011;10765;50.954;5.322;2022-12-18T01:49:51;62.87;;;39.10;;
21215;SDS011;10765;50.954;5.322;2022-12-18T01:52:18;64.43;;;36.27;;
21215;SDS011;10765;50.954;5.322;2022-12-18T01:54:47;47.67;;;28.60;;
21215;SDS011;10765;50.954;5.322;2022-12-18T01:57:16;42.90;;;27.67;;
21215;SDS011;10765;50.954;5.322;2022-12-18T01:59:44;44.47;;;27.60;;
21215;SDS011;10765;50.954;5.322;2022-12-18T02:02:13;44.17;;;26.47;;
21215;SDS011;10765;50.954;5.322;2022-12-18T02:04:41;46.00;;;26.10;;
21215;SDS011;10765;50.954;5.322;2022-12-18T02:07:10;45.40;;;25.87;;
21215;SDS011;10765;50.954;5.322;2022-12-18T02:09:44;45.47;;;26.87;;
21215;SDS011;10765;50.954;5.322;2022-12-18T02:12:16;48.13;;;26.93;;
21215;SDS011;10765;50.954;5.322;2022-12-18T02:14:47;44.27;;;26.17;;
21215;SDS011;10765;50.954;5.322;2022-12-18T02:17:28;44.27;;;25.13;;
21215;SDS011;10765;50.954;5.322;2022-12-18T02:20:05;55.17;;;33.10;;
21215;SDS011;10765;50.954;5.322;2022-12-18T02:22:42;47.20;;;27.90;;
21215;SDS011;10765;50.954;5.322;2022-12-18T02:25:24;44.83;;;26.23;;
21215;SDS011;10765;50.954;5.322;2022-12-18T02:28:11;42.73;;;25.10;;
21215;SDS011;10765;50.954;5.322;2022-12-18T02:30:41;44.73;;;26.40;;
21215;SDS011;10765;50.954;5.322;2022-12-18T02:33:09;45.77;;;25.17;;
21215;SDS011;10765;50.954;5.322;2022-12-18T02:35:38;46.73;;;25.63;;
21215;SDS011;10765;50.954;5.322;2022-12-18T02:38:07;41.07;;;24.10;;
21215;SDS011;10765;50.954;5.322;2022-12-18T02:40:35;45.33;;;25.10;;
21215;SDS011;10765;50.954;5.322;2022-12-18T02:43:06;43.87;;;24.60;;
21215;SDS011;10765;50.954;5.322;2022-12-18T02:45:35;44.00;;;25.13;;
21215;SDS011;10765;50.954;5.322;2022-12-18T02:48:03;39.97;;;24.03;;
21215;SDS011;10765;50.954;5.322;2022-12-18T02:50:31;44.53;;;24.27;;
21215;SDS011;10765;50.954;5.322;2022-12-18T02:53:06;43.20;;;24.40;;
21215;SDS011;10765;50.954;5.322;2022-12-18T02:55:45;41.27;;;23.07;;
21215;SDS011;10765;50.954;5.322;2022-12-18T02:58:23;40.80;;;23.50;;
21215;SDS011;10765;50.954;5.322;2022-12-18T03:00:58;39.23;;;22.70;;
21215;SDS011;10765;50.954;5.322;2022-12-18T03:03:30;42.00;;;24.10;;
21215;SDS011;10765;50.954;5.322;2022-12-18T03:06:03;36.37;;;21.70;;
21215;SDS011;10765;50.954;5.322;2022-12-18T03:08:36;41.23;;;23.47;;
21215;SDS011;10765;50.954;5.322;2022-12-18T03:11:06;38.80;;;23.07;;
21215;SDS011;10765;50.954;5.322;2022-12-18T03:13:35;37.93;;;23.17;;
21215;SDS011;10765;50.954;5.322;2022-12-18T03:16:09;42.40;;;22.57;;
21215;SDS011;10765;50.954;5.322;2022-12-18T03:18:45;38.33;;;22.93;;
21215;SDS011;10765;50.954;5.322;2022-12-18T03:21:15;41.50;;;21.33;;
21215;SDS011;10765;50.954;5.322;2022-12-18T03:23:49;37.03;;;21.00;;
21215;SDS011;10765;50.954;5.322;2022-12-18T03:26:18;37.30;;;20.53;;
21215;SDS011;10765;50.954;5.322;2022-12-18T03:28:49;36.43;;;22.27;;
21215;SDS011;10765;50.954;5.322;2022-12-18T03:31:21;38.90;;;22.10;;
21215;SDS011;10765;50.954;5.322;2022-12-18T03:33:52;39.97;;;22.93;;
21215;SDS011;10765;50.954;5.322;2022-12-18T03:36:20;40.77;;;24.20;;
21215;SDS011;10765;50.954;5.322;2022-12-18T03:38:47;39.27;;;23.40;;
21215;SDS011;10765;50.954;5.322;2022-12-18T03:41:16;40.47;;;23.00;;
21215;SDS011;10765;50.954;5.322;2022-12-18T03:43:47;55.40;;;28.77;;
21215;SDS011;10765;50.954;5.322;2022-12-18T03:46:24;52.03;;;27.47;;
21215;SDS011;10765;50.954;5.322;2022-12-18T03:48:56;51.57;;;27.97;;
21215;SDS011;10765;50.954;5.322;2022-12-18T03:51:28;45.43;;;25.53;;
21215;SDS011;10765;50.954;5.322;2022-12-18T03:54:03;47.53;;;25.43;;
21215;SDS011;10765;50.954;5.322;2022-12-18T03:56:33;50.87;;;27.90;;
21215;SDS011;10765;50.954;5.322;2022-12-18T03:59:03;57.17;;;29.67;;
21215;SDS011;10765;50.954;5.322;2022-12-18T04:01:34;56.27;;;27.73;;
21215;SDS011;10765;50.954;5.322;2022-12-18T04:04:15;52.73;;;27.80;;
21215;SDS011;10765;50.954;5.322;2022-12-18T04:06:44;48.47;;;25.07;;
21215;SDS011;10765;50.954;5.322;2022-12-18T04:09:14;49.67;;;26.37;;
21215;SDS011;10765;50.954;5.322;2022-12-18T04:11:41;44.70;;;24.07;;
21215;SDS011;10765;50.954;5.322;2022-12-18T04:14:09;42.60;;;23.50;;
21215;SDS011;10765;50.954;5.322;2022-12-18T04:16:37;39.53;;;22.60;;
21215;SDS011;10765;50.954;5.322;2022-12-18T04:19:04;44.13;;;25.67;;
21215;SDS011;10765;50.954;5.322;2022-12-18T04:21:31;43.30;;;22.73;;
21215;SDS011;10765;50.954;5.322;2022-12-18T04:23:58;42.30;;;24.00;;
21215;SDS011;10765;50.954;5.322;2022-12-18T04:26:25;39.07;;;23.23;;
21215;SDS011;10765;50.954;5.322;2022-12-18T04:28:52;39.80;;;23.03;;
21215;SDS011;10765;50.954;5.322;2022-12-18T04:31:19;37.10;;;22.43;;
21215;SDS011;10765;50.954;5.322;2022-12-18T04:33:47;37.57;;;21.47;;
21215;SDS011;10765;50.954;5.322;2022-12-18T04:36:14;36.90;;;20.30;;
21215;SDS011;10765;50.954;5.322;2022-12-18T04:38:41;36.20;;;19.83;;
21215;SDS011;10765;50.954;5.322;2022-12-18T04:41:07;30.47;;;20.60;;
21215;SDS011;10765;50.954;5.322;2022-12-18T04:43:34;35.97;;;20.80;;
21215;SDS011;10765;50.954;5.322;2022-12-18T04:46:02;38.43;;;21.93;;
21215;SDS011;10765;50.954;5.322;2022-12-18T04:48:29;36.77;;;20.70;;
21215;SDS011;10765;50.954;5.322;2022-12-18T04:50:58;35.23;;;20.73;;
21215;SDS011;10765;50.954;5.322;2022-12-18T04:53:25;34.80;;;20.77;;
21215;SDS011;10765;50.954;5.322;2022-12-18T04:56:01;35.13;;;20.60;;
21215;SDS011;10765;50.954;5.322;2022-12-18T04:58:30;31.33;;;19.80;;
21215;SDS011;10765;50.954;5.322;2022-12-18T05:00:56;35.60;;;20.63;;
21215;SDS011;10765;50.954;5.322;2022-12-18T05:03:23;32.60;;;21.23;;
21215;SDS011;10765;50.954;5.322;2022-12-18T05:05:50;36.47;;;20.87;;
21215;SDS011;10765;50.954;5.322;2022-12-18T05:08:19;33.97;;;20.77;;
21215;SDS011;10765;50.954;5.322;2022-12-18T05:10:46;37.70;;;22.27;;
21215;SDS011;10765;50.954;5.322;2022-12-18T05:13:13;32.17;;;21.10;;
21215;SDS011;10765;50.954;5.322;2022-12-18T05:15:40;34.03;;;20.50;;
21215;SDS011;10765;50.954;5.322;2022-12-18T05:18:07;36.27;;;21.13;;
21215;SDS011;10765;50.954;5.322;2022-12-18T05:20:34;32.80;;;18.87;;
21215;SDS011;10765;50.954;5.322;2022-12-18T05:23:01;34.23;;;19.23;;
21215;SDS011;10765;50.954;5.322;2022-12-18T05:25:29;34.07;;;19.93;;
21215;SDS011;10765;50.954;5.322;2022-12-18T05:27:56;32.93;;;18.80;;
21215;SDS011;10765;50.954;5.322;2022-12-18T05:30:23;30.97;;;19.13;;
21215;SDS011;10765;50.954;5.322;2022-12-18T05:32:50;30.77;;;19.93;;
21215;SDS011;10765;50.954;5.322;2022-12-18T05:35:17;32.73;;;19.27;;
21215;SDS011;10765;50.954;5.322;2022-12-18T05:37:44;33.07;;;19.27;;
21215;SDS011;10765;50.954;5.322;2022-12-18T05:40:11;30.90;;;18.83;;
21215;SDS011;10765;50.954;5.322;2022-12-18T05:42:40;28.77;;;18.53;;
21215;SDS011;10765;50.954;5.322;2022-12-18T05:45:07;29.73;;;17.40;;
21215;SDS011;10765;50.954;5.322;2022-12-18T05:47:34;30.87;;;17.80;;
21215;SDS011;10765;50.954;5.322;2022-12-18T05:50:01;28.50;;;17.37;;
21215;SDS011;10765;50.954;5.322;2022-12-18T05:52:28;29.40;;;18.37;;
21215;SDS011;10765;50.954;5.322;2022-12-18T05:54:56;35.63;;;19.47;;
21215;SDS011;10765;50.954;5.322;2022-12-18T05:57:24;33.53;;;18.47;;
21215;SDS011;10765;50.954;5.322;2022-12-18T05:59:52;31.07;;;18.57;;
21215;SDS011;10765;50.954;5.322;2022-12-18T06:02:19;29.37;;;18.70;;
21215;SDS011;10765;50.954;5.322;2022-12-18T06:04:46;30.30;;;19.00;;
21215;SDS011;10765;50.954;5.322;2022-12-18T06:07:13;35.17;;;19.90;;
21215;SDS011;10765;50.954;5.322;2022-12-18T06:09:40;30.00;;;19.03;;
21215;SDS011;10765;50.954;5.322;2022-12-18T06:12:07;29.07;;;17.77;;
21215;SDS011;10765;50.954;5.322;2022-12-18T06:14:33;27.73;;;18.00;;
21215;SDS011;10765;50.954;5.322;2022-12-18T06:17:02;29.50;;;17.97;;
21215;SDS011;10765;50.954;5.322;2022-12-18T06:19:28;27.43;;;16.63;;
21215;SDS011;10765;50.954;5.322;2022-12-18T06:21:55;27.83;;;16.80;;
21215;SDS011;10765;50.954;5.322;2022-12-18T06:24:23;25.23;;;16.17;;
21215;SDS011;10765;50.954;5.322;2022-12-18T06:26:50;29.10;;;17.23;;
21215;SDS011;10765;50.954;5.322;2022-12-18T06:29:17;30.97;;;17.47;;
21215;SDS011;10765;50.954;5.322;2022-12-18T06:31:44;25.33;;;16.40;;
21215;SDS011;10765;50.954;5.322;2022-12-18T06:34:12;26.03;;;17.50;;
21215;SDS011;10765;50.954;5.322;2022-12-18T06:36:39;27.17;;;16.17;;
21215;SDS011;10765;50.954;5.322;2022-12-18T06:39:06;25.17;;;16.07;;
21215;SDS011;10765;50.954;5.322;2022-12-18T06:41:33;27.67;;;16.67;;
21215;SDS011;10765;50.954;5.322;2022-12-18T06:44:00;24.00;;;15.33;;
21215;SDS011;10765;50.954;5.322;2022-12-18T06:46:27;25.53;;;15.43;;
21215;SDS011;10765;50.954;5.322;2022-12-18T06:48:53;23.77;;;14.63;;
21215;SDS011;10765;50.954;5.322;2022-12-18T06:51:22;23.37;;;14.93;;
21215;SDS011;10765;50.954;5.322;2022-12-18T06:53:50;23.97;;;14.87;;
21215;SDS011;10765;50.954;5.322;2022-12-18T06:56:17;23.27;;;14.87;;
21215;SDS011;10765;50.954;5.322;2022-12-18T06:58:44;24.63;;;15.53;;
21215;SDS011;10765;50.954;5.322;2022-12-18T07:01:11;23.93;;;14.93;;
21215;SDS011;10765;50.954;5.322;2022-12-18T07:03:38;24.80;;;14.43;;
21215;SDS011;10765;50.954;5.322;2022-12-18T07:06:06;20.50;;;13.10;;
21215;SDS011;10765;50.954;5.322;2022-12-18T07:08:41;20.37;;;13.83;;
21215;SDS011;10765;50.954;5.322;2022-12-18T07:11:08;23.23;;;13.70;;
21215;SDS011;10765;50.954;5.322;2022-12-18T07:13:35;19.87;;;13.20;;
21215;SDS011;10765;50.954;5.322;2022-12-18T07:16:06;19.37;;;12.90;;
21215;SDS011;10765;50.954;5.322;2022-12-18T07:18:34;19.27;;;12.50;;
21215;SDS011;10765;50.954;5.322;2022-12-18T07:21:04;19.10;;;12.17;;
21215;SDS011;10765;50.954;5.322;2022-12-18T07:23:31;19.57;;;12.07;;
21215;SDS011;10765;50.954;5.322;2022-12-18T07:26:01;20.93;;;12.40;;
21215;SDS011;10765;50.954;5.322;2022-12-18T07:28:29;17.40;;;12.30;;
21215;SDS011;10765;50.954;5.322;2022-12-18T07:30:57;18.83;;;12.80;;
21215;SDS011;10765;50.954;5.322;2022-12-18T07:33:24;17.30;;;12.07;;
21215;SDS011;10765;50.954;5.322;2022-12-18T07:35:51;19.20;;;12.73;;
21215;SDS011;10765;50.954;5.322;2022-12-18T07:38:18;20.77;;;13.77;;
21215;SDS011;10765;50.954;5.322;2022-12-18T07:40:45;18.13;;;12.67;;
21215;SDS011;10765;50.954;5.322;2022-12-18T07:43:13;21.37;;;12.33;;
21215;SDS011;10765;50.954;5.322;2022-12-18T07:45:41;19.27;;;12.77;;
21215;SDS011;10765;50.954;5.322;2022-12-18T07:48:08;19.47;;;12.67;;
21215;SDS011;10765;50.954;5.322;2022-12-18T07:50:35;23.90;;;14.27;;
21215;SDS011;10765;50.954;5.322;2022-12-18T07:53:02;24.07;;;15.40;;
21215;SDS011;10765;50.954;5.322;2022-12-18T07:55:29;20.83;;;14.97;;
21215;SDS011;10765;50.954;5.322;2022-12-18T07:57:57;22.63;;;14.67;;
21215;SDS011;10765;50.954;5.322;2022-12-18T08:00:28;21.67;;;14.50;;
21215;SDS011;10765;50.954;5.322;2022-12-18T08:02:55;19.57;;;13.17;;
21215;SDS011;10765;50.954;5.322;2022-12-18T08:05:22;16.50;;;12.13;;
21215;SDS011;10765;50.954;5.322;2022-12-18T08:07:49;17.33;;;11.83;;
21215;SDS011;10765;50.954;5.322;2022-12-18T08:10:16;17.43;;;12.00;;
21215;SDS011;10765;50.954;5.322;2022-12-18T08:12:43;18.33;;;12.87;;
21215;SDS011;10765;50.954;5.322;2022-12-18T08:15:10;19.40;;;12.97;;
21215;SDS011;10765;50.954;5.322;2022-12-18T08:17:38;20.00;;;13.53;;
21215;SDS011;10765;50.954;5.322;2022-12-18T08:20:05;18.63;;;13.20;;
21215;SDS011;10765;50.954;5.322;2022-12-18T08:22:33;19.77;;;13.23;;
21215;SDS011;10765;50.954;5.322;2022-12-18T08:25:00;19.33;;;13.37;;
21215;SDS011;10765;50.954;5.322;2022-12-18T08:27:27;19.17;;;13.00;;
21215;SDS011;10765;50.954;5.322;2022-12-18T08:29:54;19.67;;;14.43;;
21215;SDS011;10765;50.954;5.322;2022-12-18T08:32:21;17.60;;;14.17;;
21215;SDS011;10765;50.954;5.322;2022-12-18T08:34:49;16.53;;;13.63;;
21215;SDS011;10765;50.954;5.322;2022-12-18T08:37:16;19.03;;;13.27;;
21215;SDS011;10765;50.954;5.322;2022-12-18T08:39:43;15.77;;;12.90;;
21215;SDS011;10765;50.954;5.322;2022-12-18T08:42:10;17.30;;;13.53;;
21215;SDS011;10765;50.954;5.322;2022-12-18T08:44:54;18.37;;;14.20;;
21215;SDS011;10765;50.954;5.322;2022-12-18T08:47:24;23.23;;;13.83;;
21215;SDS011;10765;50.954;5.322;2022-12-18T08:49:53;17.13;;;12.73;;
21215;SDS011;10765;50.954;5.322;2022-12-18T08:52:19;16.27;;;13.23;;
21215;SDS011;10765;50.954;5.322;2022-12-18T08:54:46;17.10;;;13.73;;
21215;SDS011;10765;50.954;5.322;2022-12-18T08:57:13;15.83;;;12.60;;
21215;SDS011;10765;50.954;5.322;2022-12-18T08:59:41;16.43;;;13.27;;
21215;SDS011;10765;50.954;5.322;2022-12-18T09:02:08;14.93;;;12.40;;
21215;SDS011;10765;50.954;5.322;2022-12-18T09:04:36;16.00;;;13.03;;
21215;SDS011;10765;50.954;5.322;2022-12-18T09:07:06;14.93;;;12.80;;
21215;SDS011;10765;50.954;5.322;2022-12-18T09:09:34;17.33;;;12.83;;
21215;SDS011;10765;50.954;5.322;2022-12-18T09:12:02;16.50;;;12.40;;
21215;SDS011;10765;50.954;5.322;2022-12-18T09:14:29;16.80;;;12.87;;
21215;SDS011;10765;50.954;5.322;2022-12-18T09:16:56;15.17;;;12.87;;
21215;SDS011;10765;50.954;5.322;2022-12-18T09:19:23;17.67;;;13.23;;
21215;SDS011;10765;50.954;5.322;2022-12-18T09:21:50;18.53;;;13.23;;
21215;SDS011;10765;50.954;5.322;2022-12-18T09:24:18;19.03;;;13.67;;
21215;SDS011;10765;50.954;5.322;2022-12-18T09:26:45;18.10;;;14.20;;
21215;SDS011;10765;50.954;5.322;2022-12-18T09:29:12;15.93;;;13.53;;
21215;SDS011;10765;50.954;5.322;2022-12-18T09:31:39;17.63;;;13.33;;
21215;SDS011;10765;50.954;5.322;2022-12-18T09:34:06;17.20;;;13.77;;
21215;SDS011;10765;50.954;5.322;2022-12-18T09:36:33;17.30;;;14.53;;
21215;SDS011;10765;50.954;5.322;2022-12-18T09:39:00;19.33;;;13.60;;
21215;SDS011;10765;50.954;5.322;2022-12-18T09:41:34;17.23;;;13.30;;
21215;SDS011;10765;50.954;5.322;2022-12-18T09:44:19;18.43;;;12.77;;
21215;SDS011;10765;50.954;5.322;2022-12-18T09:46:53;17.23;;;13.90;;
21215;SDS011;10765;50.954;5.322;2022-12-18T09:49:34;15.13;;;12.67;;
21215;SDS011;10765;50.954;5.322;2022-12-18T09:52:08;16.77;;;13.33;;
21215;SDS011;10765;50.954;5.322;2022-12-18T09:54:39;17.43;;;13.50;;
21215;SDS011;10765;50.954;5.322;2022-12-18T09:57:11;17.97;;;13.53;;
21215;SDS011;10765;50.954;5.322;2022-12-18T09:59:41;18.43;;;14.30;;
21215;SDS011;10765;50.954;5.322;2022-12-18T10:02:16;18.37;;;14.03;;
21215;SDS011;10765;50.954;5.322;2022-12-18T10:04:48;18.37;;;14.30;;
21215;SDS011;10765;50.954;5.322;2022-12-18T10:07:22;20.30;;;14.30;;
21215;SDS011;10765;50.954;5.322;2022-12-18T10:09:58;19.00;;;14.20;;
21215;SDS011;10765;50.954;5.322;2022-12-18T10:12:31;19.90;;;14.13;;
21215;SDS011;10765;50.954;5.322;2022-12-18T10:15:06;17.77;;;13.90;;
21215;SDS011;10765;50.954;5.322;2022-12-18T10:17:41;16.90;;;14.80;;
21215;SDS011;10765;50.954;5.322;2022-12-18T10:20:13;19.17;;;14.30;;
21215;SDS011;10765;50.954;5.322;2022-12-18T10:22:49;20.30;;;15.03;;
21215;SDS011;10765;50.954;5.322;2022-12-18T10:25:22;20.07;;;15.33;;
21215;SDS011;10765;50.954;5.322;2022-12-18T10:27:54;21.10;;;15.17;;
21215;SDS011;10765;50.954;5.322;2022-12-18T10:30:24;18.50;;;13.97;;
21215;SDS011;10765;50.954;5.322;2022-12-18T10:32:52;17.60;;;14.57;;
21215;SDS011;10765;50.954;5.322;2022-12-18T10:35:20;18.70;;;14.83;;
21215;SDS011;10765;50.954;5.322;2022-12-18T10:38:05;20.70;;;15.93;;
21215;SDS011;10765;50.954;5.322;2022-12-18T10:40:50;19.87;;;15.70;;
21215;SDS011;10765;50.954;5.322;2022-12-18T10:43:24;19.23;;;14.63;;
21215;SDS011;10765;50.954;5.322;2022-12-18T10:48:52;16.03;;;14.20;;
21215;SDS011;10765;50.954;5.322;2022-12-18T10:51:21;16.63;;;14.10;;
21215;SDS011;10765;50.954;5.322;2022-12-18T10:53:54;18.73;;;14.23;;
21215;SDS011;10765;50.954;5.322;2022-12-18T10:56:23;18.03;;;14.43;;
21215;SDS011;10765;50.954;5.322;2022-12-18T10:58:58;17.33;;;13.87;;
21215;SDS011;10765;50.954;5.322;2022-12-18T11:01:26;16.70;;;13.43;;
21215;SDS011;10765;50.954;5.322;2022-12-18T11:04:00;16.37;;;13.50;;
21215;SDS011;10765;50.954;5.322;2022-12-18T11:06:33;17.87;;;13.90;;
21215;SDS011;10765;50.954;5.322;2022-12-18T11:09:01;18.07;;;14.10;;
21215;SDS011;10765;50.954;5.322;2022-12-18T11:11:29;16.47;;;13.27;;
21215;SDS011;10765;50.954;5.322;2022-12-18T11:14:01;17.73;;;13.53;;
21215;SDS011;10765;50.954;5.322;2022-12-18T11:16:30;16.77;;;13.50;;
21215;SDS011;10765;50.954;5.322;2022-12-18T11:19:12;16.57;;;13.53;;
21215;SDS011;10765;50.954;5.322;2022-12-18T11:21:46;15.97;;;12.97;;
21215;SDS011;10765;50.954;5.322;2022-12-18T11:24:19;16.27;;;12.33;;
21215;SDS011;10765;50.954;5.322;2022-12-18T11:26:56;17.83;;;12.73;;
21215;SDS011;10765;50.954;5.322;2022-12-18T11:29:32;16.70;;;13.20;;
21215;SDS011;10765;50.954;5.322;2022-12-18T11:32:20;17.27;;;13.63;;
21215;SDS011;10765;50.954;5.322;2022-12-18T11:34:55;16.97;;;12.53;;
21215;SDS011;10765;50.954;5.322;2022-12-18T11:37:27;15.77;;;12.70;;
21215;SDS011;10765;50.954;5.322;2022-12-18T11:39:56;16.63;;;12.93;;
21215;SDS011;10765;50.954;5.322;2022-12-18T11:42:28;16.47;;;12.67;;
21215;SDS011;10765;50.954;5.322;2022-12-18T11:45:08;16.33;;;12.53;;
21215;SDS011;10765;50.954;5.322;2022-12-18T11:47:54;14.83;;;12.97;;
21215;SDS011;10765;50.954;5.322;2022-12-18T11:50:26;16.93;;;13.57;;
21215;SDS011;10765;50.954;5.322;2022-12-18T11:52:58;17.03;;;13.57;;
21215;SDS011;10765;50.954;5.322;2022-12-18T11:55:28;18.53;;;14.80;;
21215;SDS011;10765;50.954;5.322;2022-12-18T11:58:00;16.00;;;14.07;;
21215;SDS011;10765;50.954;5.322;2022-12-18T12:00:35;17.73;;;14.40;;
21215;SDS011;10765;50.954;5.322;2022-12-18T12:06:08;16.03;;;13.53;;
21215;SDS011;10765;50.954;5.322;2022-12-18T12:08:45;16.17;;;13.37;;
21215;SDS011;10765;50.954;5.322;2022-12-18T12:11:26;15.20;;;13.60;;
21215;SDS011;10765;50.954;5.322;2022-12-18T12:14:03;17.67;;;13.17;;
21215;SDS011;10765;50.954;5.322;2022-12-18T12:16:53;16.63;;;14.53;;
21215;SDS011;10765;50.954;5.322;2022-12-18T12:19:31;17.30;;;14.10;;
21215;SDS011;10765;50.954;5.322;2022-12-18T12:22:07;16.57;;;13.47;;
21215;SDS011;10765;50.954;5.322;2022-12-18T12:24:44;17.13;;;13.53;;
21215;SDS011;10765;50.954;5.322;2022-12-18T12:27:24;17.93;;;13.33;;
21215;SDS011;10765;50.954;5.322;2022-12-18T12:30:00;15.57;;;13.07;;
21215;SDS011;10765;50.954;5.322;2022-12-18T12:32:37;15.33;;;12.67;;
21215;SDS011;10765;50.954;5.322;2022-12-18T12:35:14;14.53;;;12.97;;
21215;SDS011;10765;50.954;5.322;2022-12-18T12:37:55;17.70;;;13.73;;
21215;SDS011;10765;50.954;5.322;2022-12-18T12:40:31;16.17;;;13.60;;
21215;SDS011;10765;50.954;5.322;2022-12-18T12:43:01;17.37;;;14.03;;
21215;SDS011;10765;50.954;5.322;2022-12-18T12:45:41;18.40;;;14.70;;
21215;SDS011;10765;50.954;5.322;2022-12-18T12:48:16;17.37;;;13.97;;
21215;SDS011;10765;50.954;5.322;2022-12-18T12:50:49;19.17;;;15.40;;
21215;SDS011;10765;50.954;5.322;2022-12-18T12:53:22;18.70;;;13.90;;
21215;SDS011;10765;50.954;5.322;2022-12-18T12:55:52;18.37;;;14.40;;
21215;SDS011;10765;50.954;5.322;2022-12-18T12:58:24;16.17;;;14.07;;
21215;SDS011;10765;50.954;5.322;2022-12-18T13:00:59;17.43;;;14.53;;
21215;SDS011;10765;50.954;5.322;2022-12-18T13:03:39;17.63;;;14.07;;
21215;SDS011;10765;50.954;5.322;2022-12-18T13:06:14;15.80;;;13.03;;
21215;SDS011;10765;50.954;5.322;2022-12-18T13:08:54;17.63;;;13.53;;
21215;SDS011;10765;50.954;5.322;2022-12-18T13:11:32;17.10;;;13.97;;
21215;SDS011;10765;50.954;5.322;2022-12-18T13:14:24;17.87;;;14.47;;
21215;SDS011;10765;50.954;5.322;2022-12-18T13:19:43;20.07;;;14.50;;
21215;SDS011;10765;50.954;5.322;2022-12-18T13:22:20;18.73;;;13.57;;
21215;SDS011;10765;50.954;5.322;2022-12-18T13:24:48;17.27;;;14.57;;
21215;SDS011;10765;50.954;5.322;2022-12-18T13:33:36;17.73;;;14.40;;
21215;SDS011;10765;50.954;5.322;2022-12-18T13:36:12;17.80;;;14.30;;
21215;SDS011;10765;50.954;5.322;2022-12-18T13:39:11;17.17;;;14.33;;
21215;SDS011;10765;50.954;5.322;2022-12-18T13:41:48;18.80;;;14.97;;
21215;SDS011;10765;50.954;5.322;2022-12-18T13:44:22;19.27;;;14.80;;
21215;SDS011;10765;50.954;5.322;2022-12-18T13:46:53;18.93;;;14.77;;
21215;SDS011;10765;50.954;5.322;2022-12-18T13:49:22;18.27;;;15.00;;
21215;SDS011;10765;50.954;5.322;2022-12-18T13:51:53;17.50;;;14.80;;
21215;SDS011;10765;50.954;5.322;2022-12-18T13:54:23;17.70;;;14.70;;
21215;SDS011;10765;50.954;5.322;2022-12-18T13:56:54;18.97;;;15.03;;
21215;SDS011;10765;50.954;5.322;2022-12-18T13:59:22;15.93;;;13.90;;
21215;SDS011;10765;50.954;5.322;2022-12-18T14:01:52;15.83;;;14.13;;
21215;SDS011;10765;50.954;5.322;2022-12-18T14:04:23;19.20;;;14.30;;
21215;SDS011;10765;50.954;5.322;2022-12-18T14:06:55;17.33;;;13.73;;
21215;SDS011;10765;50.954;5.322;2022-12-18T14:09:25;16.63;;;14.50;;
21215;SDS011;10765;50.954;5.322;2022-12-18T14:11:56;17.47;;;14.43;;
21215;SDS011;10765;50.954;5.322;2022-12-18T14:14:38;17.10;;;14.00;;
21215;SDS011;10765;50.954;5.322;2022-12-18T14:17:08;16.53;;;13.90;;
21215;SDS011;10765;50.954;5.322;2022-12-18T14:19:36;16.20;;;13.40;;
21215;SDS011;10765;50.954;5.322;2022-12-18T14:22:09;18.13;;;14.23;;
21215;SDS011;10765;50.954;5.322;2022-12-18T14:24:40;18.50;;;14.67;;
21215;SDS011;10765;50.954;5.322;2022-12-18T14:27:12;16.67;;;14.03;;
21215;SDS011;10765;50.954;5.322;2022-12-18T14:29:47;16.53;;;14.10;;
21215;SDS011;10765;50.954;5.322;2022-12-18T14:32:14;16.87;;;13.80;;
21215;SDS011;10765;50.954;5.322;2022-12-18T14:34:43;17.20;;;14.60;;
21215;SDS011;10765;50.954;5.322;2022-12-18T14:37:12;18.83;;;14.53;;
21215;SDS011;10765;50.954;5.322;2022-12-18T14:39:41;15.17;;;13.57;;
21215;SDS011;10765;50.954;5.322;2022-12-18T14:42:19;21.13;;;15.23;;
21215;SDS011;10765;50.954;5.322;2022-12-18T14:44:46;18.50;;;16.43;;
21215;SDS011;10765;50.954;5.322;2022-12-18T14:47:13;18.87;;;15.43;;
21215;SDS011;10765;50.954;5.322;2022-12-18T14:49:41;16.47;;;13.73;;
21215;SDS011;10765;50.954;5.322;2022-12-18T14:52:17;17.07;;;14.27;;
21215;SDS011;10765;50.954;5.322;2022-12-18T14:54:49;17.27;;;14.23;;